Time;durP1;ratioP1;P1;durP2;ratioP2;P2;SDS_P1;SDS_P2;PMS_P1;PMS_P2;Temp;Humidity;BMP_temperature;BMP_pressure;BME280_temperature;BME280_humidity;BME280_pressure;Samples;Min_cycle;Max_cycle;Signal;HPM_P1;HPM_P2
2023/04/07 00:01:01;;;;;;;13.27;5.80;;;;;;;;;;5103989;28;20024;-80
2023/04/07 00:03:33;;;;;;;12.85;6.45;;;;;;;;;;5089633;28;20046;-81
2023/04/07 00:06:01;;;;;;;11.98;5.97;;;;;;;;;;5105806;28;20039;-80
2023/04/07 00:08:33;;;;;;;11.73;6.03;;;;;;;;;;5105776;28;20055;-80
2023/04/07 00:11:01;;;;;;;11.95;5.90;;;;;;;;;;5106854;28;20096;-80
2023/04/07 00:13:29;;;;;;;12.23;5.88;;;;;;;;;;5106309;28;20043;-80
2023/04/07 00:15:57;;;;;;;11.20;6.15;;;;;;;;;;5086475;28;20130;-80
2023/04/07 00:18:49;;;;;;;8.13;4.28;;;;;;;;;;5109441;27;20521;-80
2023/04/07 00:21:17;;;;;;;12.05;5.75;;;;;;;;;;5109883;27;20120;-81
2023/04/07 00:24:10;;;;;;;9.02;5.18;;;;;;;;;;5109590;28;20138;-81
2023/04/07 00:26:43;;;;;;;10.38;4.80;;;;;;;;;;5109965;28;20031;-81
2023/04/07 00:29:11;;;;;;;11.35;6.30;;;;;;;;;;5109948;27;20518;-81
2023/04/07 00:31:39;;;;;;;12.10;6.22;;;;;;;;;;5110759;27;20040;-81
2023/04/07 00:34:33;;;;;;;15.75;6.22;;;;;;;;;;5095495;28;20031;-80
2023/04/07 00:37:05;;;;;;;13.07;5.88;;;;;;;;;;5109416;27;20119;-81
2023/04/07 00:39:33;;;;;;;8.95;4.25;;;;;;;;;;5088474;27;20118;-80
2023/04/07 00:42:27;;;;;;;7.88;4.57;;;;;;;;;;5106725;28;20040;-80
2023/04/07 00:44:55;;;;;;;8.30;4.53;;;;;;;;;;5088936;27;20084;-80
2023/04/07 00:47:23;;;;;;;10.68;5.53;;;;;;;;;;5109601;27;20437;-80
2023/04/07 00:49:51;;;;;;;9.48;5.22;;;;;;;;;;5107153;27;20048;-80
2023/04/07 00:52:26;;;;;;;9.15;5.28;;;;;;;;;;5108145;27;20032;-81
2023/04/07 00:54:59;;;;;;;9.65;5.65;;;;;;;;;;5106710;27;20471;-80
2023/04/07 00:57:31;;;;;;;9.10;5.30;;;;;;;;;;5105704;27;20047;-81
2023/04/07 00:59:59;;;;;;;6.93;4.38;;;;;;;;;;5105867;27;20048;-80
2023/04/07 01:02:35;;;;;;;8.07;4.80;;;;;;;;;;5090299;28;20408;-80
2023/04/07 01:05:10;;;;;;;9.57;5.65;;;;;;;;;;5106102;27;20051;-80
2023/04/07 01:08:24;;;;;;;10.52;5.40;;;;;;;;;;5110227;27;20031;-80
2023/04/07 01:11:02;;;;;;;10.63;5.60;;;;;;;;;;5106519;27;20143;-80
2023/04/07 01:13:47;;;;;;;9.63;4.85;;;;;;;;;;5090711;27;20491;-80
2023/04/07 01:16:41;;;;;;;11.07;5.03;;;;;;;;;;5086711;27;20051;-80
2023/04/07 01:19:33;;;;;;;11.25;5.40;;;;;;;;;;5109207;27;20038;-80
2023/04/07 01:22:06;;;;;;;11.40;5.25;;;;;;;;;;5107993;27;20028;-81
2023/04/07 01:25:17;;;;;;;11.57;5.75;;;;;;;;;;5108994;27;20041;-81
2023/04/07 01:27:54;;;;;;;8.68;4.78;;;;;;;;;;5088394;28;20080;-80
2023/04/07 01:30:36;;;;;;;10.40;4.78;;;;;;;;;;5106678;27;20035;-80
2023/04/07 01:33:07;;;;;;;12.30;5.10;;;;;;;;;;5090817;28;20035;-81
2023/04/07 01:35:41;;;;;;;11.85;4.95;;;;;;;;;;5090658;28;20402;-80
2023/04/07 01:38:36;;;;;;;7.70;5.07;;;;;;;;;;5109400;27;20024;-81
2023/04/07 01:41:10;;;;;;;9.38;4.32;;;;;;;;;;5108437;27;20039;-80
2023/04/07 01:43:38;;;;;;;9.68;4.55;;;;;;;;;;5105555;28;20411;-80
2023/04/07 01:46:14;;;;;;;8.88;4.50;;;;;;;;;;5102561;28;20118;-80
2023/04/07 01:48:47;;;;;;;9.20;4.78;;;;;;;;;;5108760;27;20059;-80
2023/04/07 01:51:41;;;;;;;10.77;5.03;;;;;;;;;;5095560;27;20031;-80
2023/04/07 01:54:16;;;;;;;8.70;4.80;;;;;;;;;;5107746;27;20046;-81
2023/04/07 01:56:43;;;;;;;9.00;4.85;;;;;;;;;;5089716;27;20111;-81
2023/04/07 01:59:11;;;;;;;9.35;4.50;;;;;;;;;;5086660;28;22077;-80
2023/04/07 02:02:10;;;;;;;10.50;4.93;;;;;;;;;;5084088;27;20514;-80
2023/04/07 02:05:08;;;;;;;10.00;5.18;;;;;;;;;;5091176;28;20034;-80
2023/04/07 02:07:49;;;;;;;7.55;4.35;;;;;;;;;;5066763;28;20134;-80
2023/04/07 02:10:25;;;;;;;8.57;4.28;;;;;;;;;;5105626;28;20085;-80
2023/04/07 02:13:02;;;;;;;9.15;4.55;;;;;;;;;;5088296;28;20100;-80
2023/04/07 02:15:31;;;;;;;8.38;4.15;;;;;;;;;;5089256;27;20478;-80
2023/04/07 02:18:26;;;;;;;7.25;3.92;;;;;;;;;;5108884;27;20482;-80
2023/04/07 02:21:05;;;;;;;5.95;3.92;;;;;;;;;;5084423;27;20135;-81
2023/04/07 02:23:36;;;;;;;6.95;4.30;;;;;;;;;;5105526;27;20055;-80
2023/04/07 02:26:34;;;;;;;9.27;4.90;;;;;;;;;;5109001;27;20495;-80
2023/04/07 02:29:02;;;;;;;6.95;3.40;;;;;;;;;;5108886;27;20440;-80
2023/04/07 02:31:37;;;;;;;9.48;3.97;;;;;;;;;;5106424;27;20127;-80
2023/04/07 02:34:30;;;;;;;7.90;4.82;;;;;;;;;;5106922;28;20067;-80
2023/04/07 02:36:57;;;;;;;9.98;4.15;;;;;;;;;;5089616;28;20050;-80
2023/04/07 02:39:25;;;;;;;7.60;3.88;;;;;;;;;;5107354;28;20512;-80
2023/04/07 02:41:53;;;;;;;7.80;4.68;;;;;;;;;;5091094;27;20036;-80
2023/04/07 02:44:45;;;;;;;7.15;3.72;;;;;;;;;;5108019;27;20666;-80
2023/04/07 02:47:17;;;;;;;8.07;3.67;;;;;;;;;;5107020;27;20046;-80
2023/04/07 02:49:45;;;;;;;6.80;3.22;;;;;;;;;;5108169;28;20159;-80
2023/04/07 02:52:13;;;;;;;7.55;4.30;;;;;;;;;;5102338;28;20388;-80
2023/04/07 02:54:41;;;;;;;7.18;3.78;;;;;;;;;;5109165;27;20081;-80
2023/04/07 02:57:12;;;;;;;7.57;4.22;;;;;;;;;;5087462;28;20031;-80
2023/04/07 03:00:05;;;;;;;7.47;3.83;;;;;;;;;;5088084;28;20023;-80
2023/04/07 03:03:07;;;;;;;8.18;3.85;;;;;;;;;;5089429;27;20042;-80
2023/04/07 03:05:40;;;;;;;6.50;3.78;;;;;;;;;;5106175;28;20209;-80
2023/04/07 03:08:34;;;;;;;7.07;4.40;;;;;;;;;;5087658;28;20507;-80
2023/04/07 03:11:27;;;;;;;8.10;3.95;;;;;;;;;;5107479;28;20051;-80
2023/04/07 03:14:01;;;;;;;9.32;4.47;;;;;;;;;;5090074;28;20035;-80
2023/04/07 03:16:31;;;;;;;8.30;4.05;;;;;;;;;;5106308;28;20027;-80
2023/04/07 03:19:08;;;;;;;7.53;3.95;;;;;;;;;;5089795;28;20047;-80
2023/04/07 03:21:59;;;;;;;6.10;3.47;;;;;;;;;;5105316;28;20042;-80
2023/04/07 03:24:27;;;;;;;9.43;3.90;;;;;;;;;;5079747;28;20044;-80
2023/04/07 03:26:55;;;;;;;7.28;4.00;;;;;;;;;;5106196;28;20381;-80
2023/04/07 03:29:37;;;;;;;8.48;4.32;;;;;;;;;;5086841;28;20403;-81
2023/04/07 03:32:29;;;;;;;7.10;3.92;;;;;;;;;;5085280;28;20032;-81
2023/04/07 03:34:57;;;;;;;10.57;4.65;;;;;;;;;;5083618;28;20392;-80
2023/04/07 03:37:25;;;;;;;6.22;3.75;;;;;;;;;;5085819;28;20046;-80
2023/04/07 03:39:53;;;;;;;9.52;4.40;;;;;;;;;;5083494;28;20031;-80
2023/04/07 03:42:27;;;;;;;8.05;4.50;;;;;;;;;;5103262;28;20122;-81
2023/04/07 03:45:03;;;;;;;11.88;4.47;;;;;;;;;;5102496;28;20405;-80
2023/04/07 03:47:33;;;;;;;11.60;4.50;;;;;;;;;;5084451;28;20070;-80
2023/04/07 03:50:03;;;;;;;9.80;4.00;;;;;;;;;;5073218;28;20031;-80
2023/04/07 03:52:35;;;;;;;8.52;5.20;;;;;;;;;;5087443;28;20411;-80
2023/04/07 03:55:11;;;;;;;7.53;4.07;;;;;;;;;;5090811;27;20074;-80
2023/04/07 04:00:35;;;;;;;7.40;3.90;;;;;;;;;;5108498;27;20122;-80
2023/04/07 04:03:07;;;;;;;7.82;4.03;;;;;;;;;;5105530;27;20078;-80
2023/04/07 04:05:39;;;;;;;8.85;4.65;;;;;;;;;;5093270;27;20039;-80
2023/04/07 04:08:09;;;;;;;6.93;4.35;;;;;;;;;;5093106;28;20486;-80
2023/04/07 04:10:43;;;;;;;10.00;4.35;;;;;;;;;;5070758;27;20522;-80
2023/04/07 04:13:36;;;;;;;8.68;4.43;;;;;;;;;;5104459;28;20084;-81
2023/04/07 04:16:05;;;;;;;7.47;3.97;;;;;;;;;;5090639;28;20126;-80
2023/04/07 04:18:35;;;;;;;8.63;3.78;;;;;;;;;;5095371;28;20036;-80
2023/04/07 04:21:03;;;;;;;7.00;3.67;;;;;;;;;;5091173;28;20092;-80
2023/04/07 04:23:59;;;;;;;8.15;4.28;;;;;;;;;;5098853;27;20107;-80
2023/04/07 04:26:31;;;;;;;10.32;4.30;;;;;;;;;;5109552;27;20040;-80
2023/04/07 04:29:05;;;;;;;7.60;4.57;;;;;;;;;;5109792;27;20077;-80
2023/04/07 04:31:33;;;;;;;9.43;4.57;;;;;;;;;;5089936;27;20503;-80
2023/04/07 04:34:01;;;;;;;8.43;4.45;;;;;;;;;;5093792;27;20488;-80
2023/04/07 04:36:30;;;;;;;7.53;4.10;;;;;;;;;;5095444;28;20089;-80
2023/04/07 04:39:03;;;;;;;7.85;3.88;;;;;;;;;;5088842;27;20081;-81
2023/04/07 04:41:55;;;;;;;7.13;3.47;;;;;;;;;;5089003;27;20027;-80
2023/04/07 04:44:31;;;;;;;6.90;3.88;;;;;;;;;;5094028;27;20085;-80
2023/04/07 04:47:01;;;;;;;5.75;3.88;;;;;;;;;;5092542;27;20039;-80
2023/04/07 04:49:31;;;;;;;7.63;4.68;;;;;;;;;;5087849;27;20038;-80
2023/04/07 04:52:01;;;;;;;10.35;4.05;;;;;;;;;;5093289;27;20031;-80
2023/04/07 04:54:33;;;;;;;7.78;4.13;;;;;;;;;;5108990;27;20116;-80
2023/04/07 04:57:01;;;;;;;8.18;4.35;;;;;;;;;;5088836;27;20036;-80
2023/04/07 04:59:29;;;;;;;6.22;3.25;;;;;;;;;;5092528;27;20040;-80
2023/04/07 05:02:08;;;;;;;6.90;4.07;;;;;;;;;;5087691;28;20418;-80
2023/04/07 05:04:43;;;;;;;8.70;4.47;;;;;;;;;;5105917;27;20490;-80
2023/04/07 05:07:28;;;;;;;8.48;4.68;;;;;;;;;;5093072;28;20028;-80
2023/04/07 05:09:57;;;;;;;8.90;4.60;;;;;;;;;;5110861;27;20509;-81
2023/04/07 05:12:25;;;;;;;8.95;4.55;;;;;;;;;;5111034;27;20080;-80
2023/04/07 05:15:17;;;;;;;8.00;4.00;;;;;;;;;;5108795;27;20562;-80
2023/04/07 05:17:49;;;;;;;9.60;4.25;;;;;;;;;;5090909;28;20047;-80
2023/04/07 05:20:23;;;;;;;13.25;4.22;;;;;;;;;;5087106;28;20107;-80
2023/04/07 05:22:51;;;;;;;9.90;4.22;;;;;;;;;;5076443;28;20040;-80
2023/04/07 05:25:21;;;;;;;9.57;4.82;;;;;;;;;;5111403;27;20039;-80
2023/04/07 05:27:51;;;;;;;8.77;4.15;;;;;;;;;;5092114;27;20467;-80
2023/04/07 05:30:43;;;;;;;7.07;3.97;;;;;;;;;;5086844;27;20023;-80
2023/04/07 05:33:11;;;;;;;6.80;3.95;;;;;;;;;;5090232;27;20126;-80
2023/04/07 05:35:54;;;;;;;9.23;4.00;;;;;;;;;;5106776;27;20062;-80
2023/04/07 05:38:21;;;;;;;8.13;4.35;;;;;;;;;;5109808;27;20069;-80
2023/04/07 05:40:49;;;;;;;7.85;3.95;;;;;;;;;;5086065;28;20031;-80
2023/04/07 05:43:25;;;;;;;7.88;3.80;;;;;;;;;;5074161;28;20045;-80
2023/04/07 05:45:53;;;;;;;4.47;2.47;;;;;;;;;;5091402;28;20138;-80
2023/04/07 05:48:33;;;;;;;5.75;3.35;;;;;;;;;;5089197;27;20036;-80
2023/04/07 05:51:19;;;;;;;8.57;4.50;;;;;;;;;;5088265;28;20146;-80
2023/04/07 05:53:47;;;;;;;8.10;4.03;;;;;;;;;;5086604;27;20055;-80
2023/04/07 05:57:00;;;;;;;7.47;4.22;;;;;;;;;;5090758;27;20491;-80
2023/04/07 05:59:52;;;;;;;9.88;4.63;;;;;;;;;;5070861;28;20044;-80
2023/04/07 06:02:19;;;;;;;12.07;4.13;;;;;;;;;;5108499;27;20295;-80
2023/04/07 06:04:47;;;;;;;9.07;3.67;;;;;;;;;;5091874;27;20039;-80
2023/04/07 06:07:41;;;;;;;8.07;4.63;;;;;;;;;;5109915;27;20472;-80
2023/04/07 06:10:57;;;;;;;8.38;3.67;;;;;;;;;;5086775;28;20031;-80
2023/04/07 06:14:11;;;;;;;;;;;;;;;;;;5096470;28;20044;-80
2023/04/07 06:16:43;;;;;;;5.72;2.90;;;;;;;;;;5087698;27;19924;-80
2023/04/07 06:19:11;;;;;;;11.68;4.10;;;;;;;;;;5106917;27;20126;-80
2023/04/07 06:22:03;;;;;;;10.23;5.10;;;;;;;;;;5109048;27;20122;-80
2023/04/07 06:25:01;;;;;;;9.25;4.68;;;;;;;;;;5072447;28;20036;-80
2023/04/07 06:27:32;;;;;;;10.20;4.70;;;;;;;;;;5107494;27;20510;-80
2023/04/07 06:30:05;;;;;;;11.32;5.25;;;;;;;;;;5109359;27;20028;-80
2023/04/07 06:32:33;;;;;;;9.90;4.57;;;;;;;;;;5090488;28;20031;-80
2023/04/07 06:35:05;;;;;;;7.38;3.78;;;;;;;;;;5108022;27;20063;-80
2023/04/07 06:37:57;;;;;;;13.75;4.80;;;;;;;;;;5106682;27;20089;-80
2023/04/07 06:40:50;;;;;;;8.40;4.22;;;;;;;;;;5109623;27;20055;-80
2023/04/07 06:43:17;;;;;;;8.00;4.32;;;;;;;;;;5087640;28;20048;-80
2023/04/07 06:45:55;;;;;;;9.10;5.03;;;;;;;;;;5085050;28;20168;-80
2023/04/07 06:48:23;;;;;;;8.68;4.63;;;;;;;;;;5107732;27;20039;-80
2023/04/07 06:50:51;;;;;;;14.75;4.68;;;;;;;;;;5110551;28;20028;-81
2023/04/07 06:53:19;;;;;;;7.47;3.90;;;;;;;;;;5090846;28;20525;-80
2023/04/07 06:55:49;;;;;;;6.35;3.85;;;;;;;;;;5091736;27;20134;-80
2023/04/07 06:58:17;;;;;;;8.20;4.28;;;;;;;;;;5107729;27;20040;-80
2023/04/07 07:01:09;;;;;;;10.07;4.88;;;;;;;;;;5107208;27;20103;-80
2023/04/07 07:03:41;;;;;;;9.43;4.53;;;;;;;;;;5107471;28;20077;-80
2023/04/07 07:06:09;;;;;;;10.57;4.93;;;;;;;;;;5106248;27;20063;-80
2023/04/07 07:09:03;;;;;;;8.80;3.80;;;;;;;;;;5093806;28;20036;-80
2023/04/07 07:11:55;;;;;;;8.82;4.70;;;;;;;;;;5105973;28;20088;-80
2023/04/07 07:14:47;;;;;;;8.40;4.35;;;;;;;;;;5109385;27;20414;-80
2023/04/07 07:17:19;;;;;;;9.68;4.50;;;;;;;;;;5083267;28;20129;-80
2023/04/07 07:19:47;;;;;;;8.40;3.50;;;;;;;;;;5103200;28;20134;-80
2023/04/07 07:22:15;;;;;;;5.68;3.35;;;;;;;;;;5091071;28;20439;-80
2023/04/07 07:24:43;;;;;;;6.15;3.70;;;;;;;;;;5108429;28;20040;-80
2023/04/07 07:27:15;;;;;;;7.13;3.92;;;;;;;;;;5110059;27;20050;-80
2023/04/07 07:29:43;;;;;;;8.23;4.18;;;;;;;;;;5100098;27;20465;-82
2023/04/07 07:32:11;;;;;;;8.18;3.08;;;;;;;;;;5108767;27;20047;-81
2023/04/07 07:34:39;;;;;;;5.03;2.33;;;;;;;;;;5113814;27;20035;-80
2023/04/07 07:37:07;;;;;;;13.55;4.78;;;;;;;;;;5109317;27;20663;-80
2023/04/07 07:39:35;;;;;;;12.57;4.90;;;;;;;;;;5111387;27;20039;-80
2023/04/07 07:42:03;;;;;;;7.50;3.45;;;;;;;;;;5090791;28;20035;-79
2023/04/07 07:44:35;;;;;;;7.70;3.70;;;;;;;;;;5111866;27;20132;-82
2023/04/07 07:47:07;;;;;;;7.13;4.03;;;;;;;;;;5107178;27;20081;-80
2023/04/07 07:49:35;;;;;;;10.00;4.60;;;;;;;;;;5093867;27;20043;-80
2023/04/07 07:52:07;;;;;;;7.50;4.35;;;;;;;;;;5110392;27;20043;-80
2023/04/07 07:54:37;;;;;;;8.40;4.03;;;;;;;;;;5093647;28;20050;-80
2023/04/07 07:57:05;;;;;;;9.05;4.30;;;;;;;;;;5109943;27;20529;-80
2023/04/07 07:59:33;;;;;;;7.95;3.88;;;;;;;;;;5109292;27;20118;-80
2023/04/07 08:02:01;;;;;;;6.82;4.13;;;;;;;;;;5109689;27;20038;-79
2023/04/07 08:04:29;;;;;;;3.47;2.15;;;;;;;;;;5111211;27;20089;-80
2023/04/07 08:06:57;;;;;;;10.40;4.20;;;;;;;;;;5109302;27;20043;-80
2023/04/07 08:09:31;;;;;;;8.80;4.28;;;;;;;;;;5111563;27;20039;-80
2023/04/07 08:12:00;;;;;;;2.72;1.67;;;;;;;;;;5096206;28;20100;-80
2023/04/07 08:14:27;;;;;;;7.10;4.00;;;;;;;;;;5090594;28;20044;-80
2023/04/07 08:16:55;;;;;;;8.18;4.05;;;;;;;;;;5089519;28;20601;-80
2023/04/07 08:19:23;;;;;;;11.23;4.07;;;;;;;;;;5114324;27;20047;-80
2023/04/07 08:21:51;;;;;;;4.63;2.67;;;;;;;;;;5109878;27;20063;-80
2023/04/07 08:24:23;;;;;;;10.15;4.47;;;;;;;;;;5110886;27;20652;-80
2023/04/07 08:26:51;;;;;;;10.27;3.90;;;;;;;;;;5109914;27;20048;-80
2023/04/07 08:29:19;;;;;;;8.85;3.80;;;;;;;;;;5109428;27;20046;-80
2023/04/07 08:31:47;;;;;;;8.70;3.92;;;;;;;;;;5107736;27;20040;-80
2023/04/07 08:34:15;;;;;;;8.85;3.85;;;;;;;;;;5088168;27;20059;-80
2023/04/07 08:36:43;;;;;;;11.18;4.10;;;;;;;;;;5113047;27;20135;-80
2023/04/07 08:39:11;;;;;;;7.25;3.67;;;;;;;;;;5108883;27;20042;-80
2023/04/07 08:41:41;;;;;;;9.02;4.10;;;;;;;;;;5110301;27;20563;-80
2023/04/07 08:44:09;;;;;;;6.07;3.50;;;;;;;;;;5109370;27;20039;-80
2023/04/07 08:46:42;;;;;;;8.80;3.45;;;;;;;;;;5107147;27;20124;-80
2023/04/07 08:49:12;;;;;;;7.28;3.95;;;;;;;;;;5109160;27;20547;-81
2023/04/07 08:51:48;;;;;;;7.45;2.95;;;;;;;;;;5108626;27;20035;-81
2023/04/07 08:54:17;;;;;;;10.20;4.00;;;;;;;;;;5110455;27;20050;-82
2023/04/07 08:56:45;;;;;;;7.68;3.85;;;;;;;;;;5108820;27;20034;-81
2023/04/07 08:59:24;;;;;;;7.55;3.72;;;;;;;;;;5110323;27;20644;-81
2023/04/07 09:01:51;;;;;;;9.48;4.32;;;;;;;;;;5109826;27;20044;-81
2023/04/07 09:04:19;;;;;;;8.73;4.20;;;;;;;;;;5107873;27;20070;-81
2023/04/07 09:06:51;;;;;;;5.20;2.67;;;;;;;;;;5110566;27;20067;-82
2023/04/07 09:09:19;;;;;;;7.85;3.03;;;;;;;;;;5109181;27;20067;-81
2023/04/07 09:11:47;;;;;;;7.47;3.72;;;;;;;;;;5110396;27;20560;-81
2023/04/07 09:14:15;;;;;;;9.57;4.60;;;;;;;;;;5094567;28;20039;-81
2023/04/07 09:17:07;;;;;;;7.75;3.75;;;;;;;;;;5104902;27;20673;-81
2023/04/07 09:19:35;;;;;;;9.38;4.55;;;;;;;;;;5090348;27;20059;-81
2023/04/07 09:22:03;;;;;;;8.88;4.25;;;;;;;;;;5108382;27;20055;-81
2023/04/07 09:24:35;;;;;;;7.72;4.60;;;;;;;;;;5090682;27;20624;-81
2023/04/07 09:27:11;;;;;;;6.78;4.07;;;;;;;;;;5108470;27;20130;-81
2023/04/07 09:29:49;;;;;;;7.00;3.95;;;;;;;;;;5095443;27;20078;-81
2023/04/07 09:32:40;;;;;;;7.20;3.65;;;;;;;;;;5090634;28;20040;-82
2023/04/07 09:35:07;;;;;;;7.63;3.63;;;;;;;;;;5108684;27;20043;-81
2023/04/07 09:37:35;;;;;;;7.55;3.88;;;;;;;;;;5108113;27;20520;-81
2023/04/07 09:40:27;;;;;;;7.72;4.63;;;;;;;;;;5114114;27;20032;-83
2023/04/07 09:43:19;;;;;;;5.63;3.05;;;;;;;;;;5115211;27;20040;-83
2023/04/07 09:45:47;;;;;;;8.95;3.83;;;;;;;;;;5106035;27;20135;-83
2023/04/07 09:48:19;;;;;;;8.55;4.30;;;;;;;;;;5094993;28;20611;-83
2023/04/07 09:51:17;;;;;;;11.55;4.32;;;;;;;;;;5089802;28;20031;-83
2023/04/07 09:53:50;;;;;;;11.18;5.00;;;;;;;;;;5086027;27;20035;-83
2023/04/07 09:56:23;;;;;;;8.98;4.45;;;;;;;;;;5115757;27;20130;-83
2023/04/07 09:58:51;;;;;;;9.27;4.38;;;;;;;;;;5114390;27;20079;-83
2023/04/07 10:01:20;;;;;;;9.30;4.20;;;;;;;;;;5097432;28;20384;-83
2023/04/07 10:03:49;;;;;;;7.43;4.20;;;;;;;;;;5094521;28;20078;-83
2023/04/07 10:06:46;;;;;;;6.57;2.88;;;;;;;;;;5113906;27;20039;-83
2023/04/07 10:09:13;;;;;;;6.82;2.70;;;;;;;;;;5119268;27;20075;-83
2023/04/07 10:11:48;;;;;;;7.07;3.42;;;;;;;;;;5120617;27;20039;-83
2023/04/07 10:14:45;;;;;;;7.32;3.35;;;;;;;;;;5115986;27;20084;-83
2023/04/07 10:17:18;;;;;;;7.22;3.95;;;;;;;;;;5096112;28;20043;-83
2023/04/07 10:19:47;;;;;;;6.28;2.88;;;;;;;;;;5116859;27;20043;-83
2023/04/07 10:22:16;;;;;;;5.32;3.40;;;;;;;;;;5116408;27;20042;-83
2023/04/07 10:24:57;;;;;;;9.05;3.80;;;;;;;;;;5117035;27;20052;-83
2023/04/07 10:27:35;;;;;;;7.38;3.85;;;;;;;;;;5116612;27;20040;-83
2023/04/07 10:30:14;;;;;;;8.25;3.97;;;;;;;;;;5101424;27;20038;-83
2023/04/07 10:32:48;;;;;;;7.57;3.80;;;;;;;;;;5111268;28;20138;-82
2023/04/07 10:35:22;;;;;;;8.98;4.00;;;;;;;;;;5115826;27;20039;-83
2023/04/07 10:38:09;;;;;;;7.38;3.83;;;;;;;;;;5116604;27;20170;-83
2023/04/07 10:40:42;;;;;;;6.78;3.60;;;;;;;;;;5116993;27;20533;-83
2023/04/07 10:43:13;;;;;;;7.53;3.65;;;;;;;;;;5116988;27;20071;-83
2023/04/07 10:45:58;;;;;;;7.80;4.10;;;;;;;;;;5109825;28;20040;-82
2023/04/07 10:48:31;;;;;;;6.03;3.80;;;;;;;;;;5099609;27;20071;-82
2023/04/07 10:51:06;;;;;;;8.15;4.28;;;;;;;;;;5080658;28;20496;-81
2023/04/07 10:54:19;;;;;;;7.10;3.92;;;;;;;;;;5108114;28;20071;-82
2023/04/07 10:57:02;;;;;;;8.15;3.80;;;;;;;;;;5105799;28;20046;-82
2023/04/07 10:59:29;;;;;;;8.20;4.50;;;;;;;;;;5108823;27;20039;-83
2023/04/07 11:02:12;;;;;;;8.98;4.50;;;;;;;;;;5111370;27;20032;-83
2023/04/07 11:04:45;;;;;;;8.68;4.38;;;;;;;;;;5090683;28;20093;-83
2023/04/07 11:07:14;;;;;;;8.75;4.05;;;;;;;;;;5102289;27;20059;-83
2023/04/07 11:09:47;;;;;;;7.45;4.28;;;;;;;;;;5086739;28;20035;-82
2023/04/07 11:12:22;;;;;;;7.70;4.18;;;;;;;;;;5105405;28;20032;-82
2023/04/07 11:14:49;;;;;;;7.03;3.90;;;;;;;;;;5102296;27;20038;-81
2023/04/07 11:17:21;;;;;;;7.32;3.40;;;;;;;;;;5103354;27;20063;-82
2023/04/07 11:19:52;;;;;;;7.90;3.78;;;;;;;;;;5105358;27;20036;-82
2023/04/07 11:22:58;;;;;;;5.75;3.10;;;;;;;;;;5107944;27;20043;-82
2023/04/07 11:25:51;;;;;;;7.07;3.30;;;;;;;;;;5106301;28;20031;-82
2023/04/07 11:28:29;;;;;;;6.10;3.35;;;;;;;;;;5104067;28;20027;-82
2023/04/07 11:30:58;;;;;;;7.03;3.67;;;;;;;;;;5101083;28;20044;-82
2023/04/07 11:33:30;;;;;;;7.32;3.20;;;;;;;;;;5084681;28;20082;-82
2023/04/07 11:36:40;;;;;;;9.38;3.08;;;;;;;;;;5103818;28;20777;-82
2023/04/07 11:39:20;;;;;;;6.55;3.58;;;;;;;;;;5083671;28;20057;-81
2023/04/07 11:41:49;;;;;;;7.30;3.53;;;;;;;;;;5104695;28;20070;-81
2023/04/07 11:44:17;;;;;;;6.60;2.95;;;;;;;;;;5104453;28;20048;-82
2023/04/07 11:46:59;;;;;;;6.60;3.17;;;;;;;;;;5084279;28;20044;-82
2023/04/07 11:49:27;;;;;;;5.55;2.47;;;;;;;;;;5105498;28;20228;-82
2023/04/07 11:52:08;;;;;;;6.60;3.22;;;;;;;;;;5104525;28;20032;-82
2023/04/07 11:54:46;;;;;;;5.68;2.88;;;;;;;;;;5102815;28;20130;-82
2023/04/07 11:57:26;;;;;;;6.05;2.50;;;;;;;;;;5101966;28;20031;-82
2023/04/07 12:00:08;;;;;;;4.45;2.75;;;;;;;;;;5089210;28;20796;-82
2023/04/07 12:02:35;;;;;;;5.40;2.80;;;;;;;;;;5103308;28;20126;-82
2023/04/07 12:05:04;;;;;;;7.63;2.85;;;;;;;;;;5091994;28;20040;-82
2023/04/07 12:07:38;;;;;;;9.85;3.03;;;;;;;;;;5084508;28;20141;-81
2023/04/07 12:10:27;;;;;;;8.90;2.97;;;;;;;;;;5100363;28;21190;-86
2023/04/07 12:12:59;;;;;;;9.13;3.75;;;;;;;;;;5087152;28;20109;-84
2023/04/07 12:18:35;;;;;;;4.80;2.50;;;;;;;;;;5106449;27;20039;-83
2023/04/07 12:21:03;;;;;;;4.38;2.28;;;;;;;;;;5108288;27;20147;-83
2023/04/07 12:23:31;;;;;;;5.03;2.22;;;;;;;;;;5105618;27;20487;-83
2023/04/07 12:26:00;;;;;;;4.32;2.40;;;;;;;;;;5107654;27;20092;-82
2023/04/07 12:28:54;;;;;;;5.50;2.03;;;;;;;;;;5095034;27;20065;-83
2023/04/07 12:31:27;;;;;;;5.88;2.60;;;;;;;;;;5108997;27;20059;-83
2023/04/07 12:33:55;;;;;;;4.97;2.58;;;;;;;;;;5104663;27;20058;-82
2023/04/07 12:36:24;;;;;;;3.50;1.95;;;;;;;;;;5082519;27;20407;-83
2023/04/07 12:39:17;;;;;;;4.53;2.00;;;;;;;;;;5108553;27;20044;-83
2023/04/07 12:41:46;;;;;;;4.18;2.00;;;;;;;;;;5106568;27;20036;-83
2023/04/07 12:44:19;;;;;;;2.78;1.27;;;;;;;;;;5106094;27;20039;-83
2023/04/07 12:46:54;;;;;;;2.65;1.35;;;;;;;;;;5087941;28;20040;-83
2023/04/07 12:49:23;;;;;;;4.72;1.45;;;;;;;;;;5110436;27;20054;-84
2023/04/07 12:51:51;;;;;;;5.22;1.20;;;;;;;;;;5089147;28;20046;-83
2023/04/07 12:54:19;;;;;;;3.17;1.58;;;;;;;;;;5102985;27;20040;-83
2023/04/07 12:56:47;;;;;;;3.25;1.40;;;;;;;;;;5090439;28;20044;-83
2023/04/07 12:59:15;;;;;;;5.50;1.42;;;;;;;;;;5091062;28;20089;-83
2023/04/07 13:01:43;;;;;;;3.13;1.50;;;;;;;;;;5107360;27;20032;-83
2023/04/07 13:04:11;;;;;;;2.45;1.30;;;;;;;;;;5104313;27;20287;-83
2023/04/07 13:06:43;;;;;;;3.72;1.55;;;;;;;;;;5109290;27;20055;-84
2023/04/07 13:09:35;;;;;;;3.70;1.73;;;;;;;;;;5101455;27;20154;-84
2023/04/07 13:12:03;;;;;;;3.78;1.42;;;;;;;;;;5103482;27;20150;-84
2023/04/07 13:14:33;;;;;;;5.05;1.63;;;;;;;;;;5088216;27;20047;-83
2023/04/07 13:17:06;;;;;;;4.10;2.03;;;;;;;;;;5086682;27;20050;-83
2023/04/07 13:19:39;;;;;;;3.25;1.63;;;;;;;;;;5106175;27;20117;-83
2023/04/07 13:22:07;;;;;;;2.60;1.38;;;;;;;;;;5087734;27;20504;-83
2023/04/07 13:24:47;;;;;;;4.65;1.85;;;;;;;;;;5085854;28;20139;-83
2023/04/07 13:27:39;;;;;;;4.40;1.55;;;;;;;;;;5091144;28;20674;-84
2023/04/07 13:30:40;;;;;;;3.55;1.90;;;;;;;;;;5095202;27;20071;-83
2023/04/07 13:33:09;;;;;;;2.67;1.40;;;;;;;;;;5086732;27;20130;-83
2023/04/07 13:35:37;;;;;;;3.20;1.08;;;;;;;;;;5108493;27;20046;-83
2023/04/07 13:38:05;;;;;;;4.88;1.92;;;;;;;;;;5086179;27;20407;-84
2023/04/07 13:40:33;;;;;;;5.18;1.98;;;;;;;;;;5106050;27;20044;-82
2023/04/07 13:43:07;;;;;;;4.65;2.42;;;;;;;;;;5104466;27;20125;-82
2023/04/07 13:45:39;;;;;;;5.85;2.30;;;;;;;;;;5085130;27;20112;-83
2023/04/07 13:48:07;;;;;;;4.70;2.20;;;;;;;;;;5103855;27;20126;-82
2023/04/07 13:50:37;;;;;;;4.20;2.45;;;;;;;;;;5101730;27;20036;-82
2023/04/07 13:53:11;;;;;;;5.68;2.58;;;;;;;;;;5103730;27;20038;-82
2023/04/07 13:55:39;;;;;;;4.40;2.40;;;;;;;;;;5103064;27;20487;-82
2023/04/07 13:58:07;;;;;;;6.35;2.40;;;;;;;;;;5091495;27;20079;-82
2023/04/07 14:00:37;;;;;;;6.13;2.35;;;;;;;;;;5105885;27;20088;-83
2023/04/07 14:03:05;;;;;;;5.72;2.33;;;;;;;;;;5073523;27;20046;-82
2023/04/07 14:06:00;;;;;;;5.40;1.95;;;;;;;;;;5106983;28;20376;-84
2023/04/07 14:08:27;;;;;;;3.92;2.30;;;;;;;;;;5104957;27;20070;-84
2023/04/07 14:11:01;;;;;;;4.65;2.35;;;;;;;;;;5078223;28;20043;-84
2023/04/07 14:13:33;;;;;;;4.90;2.53;;;;;;;;;;5089466;27;20490;-84
2023/04/07 14:16:06;;;;;;;6.82;2.55;;;;;;;;;;5104318;27;20039;-84
2023/04/07 14:18:36;;;;;;;3.92;2.10;;;;;;;;;;5088189;27;20046;-84
2023/04/07 14:21:05;;;;;;;4.43;2.50;;;;;;;;;;5107120;27;20393;-82
2023/04/07 14:26:31;;;;;;;4.20;2.40;;;;;;;;;;5088293;27;20043;-82
2023/04/07 14:29:23;;;;;;;7.97;2.90;;;;;;;;;;5107341;27;20093;-82
2023/04/07 14:31:56;;;;;;;6.40;2.65;;;;;;;;;;5104753;27;20031;-83
2023/04/07 14:34:25;;;;;;;7.72;2.47;;;;;;;;;;5106790;27;20035;-83
2023/04/07 14:36:54;;;;;;;7.25;2.83;;;;;;;;;;5107152;27;20055;-83
2023/04/07 14:39:38;;;;;;;6.20;2.60;;;;;;;;;;5085917;27;20047;-83
2023/04/07 14:42:19;;;;;;;7.85;2.83;;;;;;;;;;5106821;27;20047;-84
2023/04/07 14:45:03;;;;;;;5.30;2.30;;;;;;;;;;5105362;27;20050;-83
2023/04/07 14:47:31;;;;;;;7.18;3.40;;;;;;;;;;5085070;28;20437;-83
2023/04/07 14:49:59;;;;;;;6.82;2.65;;;;;;;;;;5109469;27;20071;-83
2023/04/07 14:52:31;;;;;;;5.75;2.80;;;;;;;;;;5084560;28;20054;-83
2023/04/07 14:55:05;;;;;;;4.93;2.92;;;;;;;;;;5106551;27;20050;-83
2023/04/07 14:57:35;;;;;;;5.68;2.55;;;;;;;;;;5100861;27;20036;-82
2023/04/07 15:00:06;;;;;;;4.63;2.00;;;;;;;;;;5084519;28;20071;-82
2023/04/07 15:02:33;;;;;;;6.70;2.80;;;;;;;;;;5104243;27;20120;-83
2023/04/07 15:05:01;;;;;;;7.65;2.83;;;;;;;;;;5076946;28;20047;-82
2023/04/07 15:07:55;;;;;;;7.95;2.78;;;;;;;;;;5089169;28;20490;-83
2023/04/07 15:10:29;;;;;;;5.15;3.00;;;;;;;;;;5105161;27;20092;-83
2023/04/07 15:12:57;;;;;;;8.85;3.05;;;;;;;;;;5105733;28;20433;-83
2023/04/07 15:15:49;;;;;;;5.45;2.50;;;;;;;;;;5089815;28;20036;-83
2023/04/07 15:18:23;;;;;;;6.38;3.00;;;;;;;;;;5105498;28;20096;-83
2023/04/07 15:21:00;;;;;;;5.85;2.83;;;;;;;;;;5069338;28;20509;-83
2023/04/07 15:23:27;;;;;;;7.20;2.80;;;;;;;;;;5083939;28;20044;-83
2023/04/07 15:25:59;;;;;;;5.32;2.35;;;;;;;;;;5083010;28;20047;-84
2023/04/07 15:28:46;;;;;;;7.50;3.10;;;;;;;;;;5086258;28;20467;-85
2023/04/07 15:31:28;;;;;;;7.85;3.03;;;;;;;;;;5082650;28;20047;-82
2023/04/07 15:34:01;;;;;;;5.97;2.80;;;;;;;;;;5106546;28;20035;-83
2023/04/07 15:36:30;;;;;;;8.68;3.20;;;;;;;;;;5086094;28;20059;-83
2023/04/07 15:39:03;;;;;;;6.68;3.35;;;;;;;;;;5104958;28;20127;-83